Time;durP1;ratioP1;P1;durP2;ratioP2;P2;SDS_P1;SDS_P2;PMS_P1;PMS_P2;Temp;Humidity;BMP_temperature;BMP_pressure;BME280_temperature;BME280_humidity;BME280_pressure;Samples;Min_cycle;Max_cycle;Signal;HPM_P1;HPM_P2
2023/08/06 00:00:08;;;;;;;2.70;2.50;;;;;22.50;99379.00;;;;2061324;28;20240;-70
2023/08/06 00:01:08;;;;;;;2.90;2.60;;;;;22.50;99387.00;;;;2055225;28;20203;-70
2023/08/06 00:02:09;;;;;;;3.23;2.57;;;;;22.50;99384.00;;;;2056040;28;20222;-70
2023/08/06 00:03:09;;;;;;;2.80;2.60;;;;;22.50;99387.00;;;;2047162;28;20292;-70
2023/08/06 00:04:09;;;;;;;3.10;2.80;;;;;22.50;99383.00;;;;2052373;28;20239;-68
2023/08/06 00:05:10;;;;;;;2.60;2.40;;;;;22.50;99390.00;;;;2057885;28;20223;-68
2023/08/06 00:06:10;;;;;;;3.17;2.90;;;;;22.50;99393.00;;;;2056303;28;20246;-69
2023/08/06 00:07:10;;;;;;;2.57;2.37;;;;;22.50;99383.00;;;;2055466;28;20579;-68
2023/08/06 00:08:10;;;;;;;3.30;2.60;;;;;22.50;99395.00;;;;2046810;28;20800;-68
2023/08/06 00:09:11;;;;;;;2.87;2.67;;;;;22.50;99385.00;;;;2055882;28;20684;-68
2023/08/06 00:10:11;;;;;;;4.17;2.87;;;;;22.50;99389.00;;;;2044356;28;20750;-68
2023/08/06 00:11:12;;;;;;;3.07;2.77;;;;;22.50;99391.00;;;;2056601;28;20211;-68
2023/08/06 00:12:13;;;;;;;2.67;2.47;;;;;22.50;99393.00;;;;2055081;28;20226;-68
2023/08/06 00:13:13;;;;;;;3.57;2.23;;;;;22.50;99389.00;;;;2046896;28;20846;-68
2023/08/06 00:14:15;;;;;;;5.17;2.50;;;;;22.50;99375.00;;;;2053123;28;20730;-68
2023/08/06 00:15:15;;;;;;;3.38;2.50;;;;;22.50;99387.00;;;;2055493;28;20281;-68
2023/08/06 00:16:16;;;;;;;2.77;2.17;;;;;22.50;99383.00;;;;2056252;28;20224;-68
2023/08/06 00:17:16;;;;;;;2.87;2.60;;;;;22.50;99381.00;;;;2054541;28;20544;-69
2023/08/06 00:18:16;;;;;;;2.97;2.77;;;;;22.50;99379.00;;;;2046793;28;20712;-69
2023/08/06 00:19:17;;;;;;;3.07;2.77;;;;;22.50;99378.00;;;;2056838;28;20222;-69
2023/08/06 00:20:17;;;;;;;2.60;2.40;;;;;22.50;99373.00;;;;2058488;28;20223;-69
2023/08/06 00:21:18;;;;;;;3.00;2.60;;;;;22.50;99373.00;;;;2056867;28;20242;-69
2023/08/06 00:22:18;;;;;;;2.70;2.50;;;;;22.50;99374.00;;;;2056441;28;20223;-69
2023/08/06 00:23:21;;;;;;;3.77;2.27;;;;;22.50;99373.00;;;;2046523;28;20705;-69
2023/08/06 00:24:21;;;;;;;3.85;2.63;;;;;22.50;99374.00;;;;2060585;28;20706;-69
2023/08/06 00:25:22;;;;;;;2.63;2.43;;;;;22.50;99375.00;;;;2063762;28;20285;-69
2023/08/06 00:26:22;;;;;;;3.30;2.50;;;;;22.50;99379.00;;;;2061057;28;20238;-69
2023/08/06 00:27:22;;;;;;;2.60;2.40;;;;;22.50;99375.00;;;;2064216;28;20671;-69
2023/08/06 00:28:23;;;;;;;3.73;3.27;;;;;22.50;99370.00;;;;2055394;28;20231;-69
2023/08/06 00:29:23;;;;;;;2.63;2.43;;;;;22.50;99365.00;;;;2064414;28;20233;-69
2023/08/06 00:30:23;;;;;;;3.03;2.33;;;;;22.50;99361.00;;;;2064331;28;20222;-69
2023/08/06 00:31:24;;;;;;;2.10;1.93;;;;;22.50;99369.00;;;;2061612;28;20281;-69
2023/08/06 00:32:24;;;;;;;2.77;2.53;;;;;22.50;99340.00;;;;2063747;28;20222;-69
2023/08/06 00:33:24;;;;;;;2.77;2.47;;;;;22.50;99365.00;;;;2053802;28;20242;-69
2023/08/06 00:34:25;;;;;;;2.43;2.23;;;;;22.50;99368.00;;;;2055667;28;20278;-69
2023/08/06 00:35:25;;;;;;;5.93;2.50;;;;;22.50;99366.00;;;;2062593;28;20218;-69
2023/08/06 00:36:25;;;;;;;3.67;2.57;;;;;22.50;99360.00;;;;2061203;28;20226;-69
2023/08/06 00:37:26;;;;;;;4.47;2.70;;;;;22.50;99362.00;;;;2062203;28;20234;-69
2023/08/06 00:38:26;;;;;;;2.50;2.23;;;;;22.50;99358.00;;;;2052810;28;20270;-69
2023/08/06 00:39:26;;;;;;;2.37;2.17;;;;;22.50;99355.00;;;;2064320;28;20227;-69
2023/08/06 00:40:29;;;;;;;2.50;2.20;;;;;22.50;99355.00;;;;2059969;28;20219;-69
2023/08/06 00:41:30;;;;;;;3.05;2.20;;;;;22.50;99355.00;;;;2062018;28;20222;-69
2023/08/06 00:42:30;;;;;;;3.83;2.57;;;;;22.50;99353.00;;;;2063333;28;20219;-69
2023/08/06 00:43:30;;;;;;;3.63;2.60;;;;;22.50;99352.00;;;;2055941;28;20296;-69
2023/08/06 00:44:31;;;;;;;3.17;2.50;;;;;22.50;99351.00;;;;2063986;28;20223;-69
2023/08/06 00:45:33;;;;;;;2.30;2.10;;;;;22.50;99351.00;;;;2062703;28;20262;-69
2023/08/06 00:46:34;;;;;;;2.17;1.98;;;;;22.50;99352.00;;;;2063398;28;20687;-69
2023/08/06 00:47:34;;;;;;;2.67;2.20;;;;;22.50;99349.00;;;;2063838;28;20215;-69
2023/08/06 00:48:34;;;;;;;4.30;2.50;;;;;22.50;99333.00;;;;2044801;28;20216;-69
2023/08/06 00:49:35;;;;;;;2.40;2.20;;;;;22.50;99349.00;;;;2052416;28;20844;-69
2023/08/06 00:50:36;;;;;;;2.90;2.42;;;;;22.50;99340.00;;;;2061185;28;20270;-69
2023/08/06 00:51:36;;;;;;;2.30;2.03;;;;;22.50;99345.00;;;;2061981;28;20211;-69
2023/08/06 00:52:36;;;;;;;2.87;2.63;;;;;22.50;99345.00;;;;2063080;28;20261;-69
2023/08/06 00:53:37;;;;;;;3.07;2.80;;;;;22.50;99343.00;;;;2053974;28;20219;-69
2023/08/06 00:54:38;;;;;;;2.50;2.30;;;;;22.50;99344.00;;;;2057997;28;20567;-69
2023/08/06 00:55:38;;;;;;;2.23;2.03;;;;;22.50;99339.00;;;;2058774;28;20461;-69
2023/08/06 00:56:38;;;;;;;6.70;2.43;;;;;22.50;99345.00;;;;2060833;28;20223;-68
2023/08/06 00:57:39;;;;;;;3.27;2.77;;;;;22.50;99313.00;;;;2061357;28;20249;-68
2023/08/06 00:58:39;;;;;;;3.10;2.60;;;;;22.50;99341.00;;;;2053127;28;20226;-68
2023/08/06 00:59:39;;;;;;;3.40;2.40;;;;;22.50;99342.00;;;;2061842;28;20210;-68
2023/08/06 01:00:40;;;;;;;4.67;2.60;;;;;22.50;99323.00;;;;2062855;28;20230;-68
2023/08/06 01:01:40;;;;;;;3.43;2.33;;;;;22.50;99330.00;;;;2056821;28;20219;-68
2023/08/06 01:02:40;;;;;;;4.20;2.60;;;;;22.50;99344.00;;;;2062105;28;20273;-68
2023/08/06 01:03:41;;;;;;;3.47;2.27;;;;;22.50;99338.00;;;;2050737;28;20220;-68
2023/08/06 01:04:41;;;;;;;3.13;2.13;;;;;22.60;99334.00;;;;2061442;28;20213;-68
2023/08/06 01:05:41;;;;;;;4.87;2.83;;;;;22.60;99341.00;;;;2062782;28;20211;-68
2023/08/06 01:06:47;;;;;;;3.60;2.10;;;;;22.60;99334.00;;;;2055470;28;20271;-68
2023/08/06 01:08:32;;;;;;;5.20;2.20;;;;;22.60;99342.00;;;;2062265;28;20225;-68
2023/08/06 01:10:07;;;;;;;2.30;2.10;;;;;22.50;99345.00;;;;2039172;29;20216;-68
2023/08/06 01:11:16;;;;;;;4.80;2.70;;;;;22.50;99340.00;;;;2027439;29;20276;-69
2023/08/06 01:12:18;;;;;;;9.10;2.30;;;;;22.50;99326.00;;;;2031803;29;20245;-69
2023/08/06 01:13:25;;;;;;;2.78;2.35;;;;;22.50;99337.00;;;;2018937;29;20243;-69
2023/08/06 01:14:52;;;;;;;5.75;2.70;;;;;22.50;99333.00;;;;2023967;29;20233;-69
2023/08/06 01:15:56;;;;;;;2.72;2.20;;;;;22.50;99339.00;;;;2048866;28;20218;-69
2023/08/06 01:16:58;;;;;;;4.13;1.80;;;;;22.50;99330.00;;;;2058237;28;20223;-69
2023/08/06 01:17:58;;;;;;;2.40;2.20;;;;;22.50;99325.00;;;;2058442;28;20223;-69
2023/08/06 01:18:58;;;;;;;4.73;2.17;;;;;22.50;99332.00;;;;2045358;28;20770;-69
2023/08/06 01:19:59;;;;;;;3.90;2.50;;;;;22.50;99337.00;;;;2062832;28;20719;-69
2023/08/06 01:20:59;;;;;;;3.90;2.50;;;;;22.50;99338.00;;;;2064408;28;20702;-69
2023/08/06 01:21:59;;;;;;;2.53;2.33;;;;;22.50;99328.00;;;;2065420;28;20295;-69
2023/08/06 01:23:00;;;;;;;2.30;1.93;;;;;22.50;99322.00;;;;2057928;28;20218;-69
2023/08/06 01:24:00;;;;;;;2.67;2.30;;;;;22.50;99332.00;;;;2053852;28;20222;-70
2023/08/06 01:25:00;;;;;;;2.63;2.07;;;;;22.50;99334.00;;;;2059235;28;20260;-69
2023/08/06 01:26:22;;;;;;;3.23;2.30;;;;;22.50;99329.00;;;;2062895;28;20214;-69
2023/08/06 01:27:29;;;;;;;3.45;2.38;;;;;22.50;99336.00;;;;2050978;28;20672;-69
2023/08/06 01:28:51;;;;;;;2.28;1.95;;;;;22.50;99332.00;;;;2045562;28;20374;-69
2023/08/06 01:30:05;;;;;;;6.10;2.60;;;;;22.50;99297.00;;;;2056649;28;20674;-69
2023/08/06 01:31:05;;;;;;;2.70;2.20;;;;;22.50;99337.00;;;;2048300;28;20220;-69
2023/08/06 01:32:05;;;;;;;2.50;2.30;;;;;22.50;99295.00;;;;2046692;28;20324;-69
2023/08/06 01:33:06;;;;;;;2.30;2.10;;;;;22.50;99338.00;;;;2035780;28;20332;-69
2023/08/06 01:34:22;;;;;;;3.50;2.20;;;;;22.50;99331.00;;;;2054634;28;20302;-69
2023/08/06 01:35:22;;;;;;;3.10;2.80;;;;;22.50;99340.00;;;;2052366;28;20856;-69
2023/08/06 01:36:22;;;;;;;3.50;2.17;;;;;22.50;99289.00;;;;2062672;28;20238;-69
2023/08/06 01:37:23;;;;;;;2.70;2.50;;;;;22.50;99288.00;;;;2058761;28;20235;-69
2023/08/06 01:38:23;;;;;;;2.23;2.03;;;;;22.50;99334.00;;;;2044921;28;20877;-69
2023/08/06 01:39:24;;;;;;;2.80;2.30;;;;;22.50;99329.00;;;;2046273;28;20220;-69
2023/08/06 01:40:27;;;;;;;3.57;1.97;;;;;22.50;99337.00;;;;2062805;28;20613;-69
2023/08/06 01:41:27;;;;;;;2.40;2.20;;;;;22.50;99330.00;;;;2061666;28;20738;-69
2023/08/06 01:42:27;;;;;;;2.10;1.90;;;;;22.50;99329.00;;;;2059590;28;20214;-69
2023/08/06 01:43:28;;;;;;;2.43;2.07;;;;;22.50;99338.00;;;;2052110;28;20238;-69
2023/08/06 01:44:28;;;;;;;2.90;2.30;;;;;22.50;99289.00;;;;2059483;28;20634;-69
2023/08/06 01:45:28;;;;;;;2.40;2.03;;;;;22.50;99326.00;;;;2051134;28;20692;-69
2023/08/06 01:46:28;;;;;;;2.77;1.90;;;;;22.50;99322.00;;;;2053073;28;20247;-69
2023/08/06 01:47:29;;;;;;;2.40;2.20;;;;;22.50;99318.00;;;;2058661;28;20219;-69
2023/08/06 01:48:29;;;;;;;2.00;1.80;;;;;22.50;99317.00;;;;2051813;28;20313;-69
2023/08/06 01:49:30;;;;;;;4.60;2.23;;;;;22.50;99325.00;;;;2061575;28;20285;-69
2023/08/06 01:50:30;;;;;;;2.20;2.00;;;;;22.50;99315.00;;;;2062892;28;20218;-69
2023/08/06 01:51:30;;;;;;;3.20;2.00;;;;;22.50;99335.00;;;;2062780;28;20588;-69
2023/08/06 01:52:31;;;;;;;3.60;2.30;;;;;22.50;99322.00;;;;2062972;28;20706;-69
2023/08/06 01:53:31;;;;;;;1.83;1.67;;;;;22.50;99313.00;;;;2046685;28;20683;-69
2023/08/06 01:54:32;;;;;;;2.97;2.10;;;;;22.50;99313.00;;;;2061645;28;20566;-69
2023/08/06 01:55:32;;;;;;;2.70;2.00;;;;;22.50;99312.00;;;;2060669;28;20285;-69
2023/08/06 01:56:32;;;;;;;3.20;2.43;;;;;22.50;99314.00;;;;2061378;28;20223;-69
2023/08/06 01:57:33;;;;;;;4.13;2.30;;;;;22.50;99320.00;;;;2061917;28;20238;-69
2023/08/06 01:58:33;;;;;;;5.70;1.97;;;;;22.50;99316.00;;;;2053018;28;20261;-69
2023/08/06 01:59:33;;;;;;;2.40;2.03;;;;;22.50;99314.00;;;;2063266;28;20233;-69
2023/08/06 02:00:34;;;;;;;2.93;2.00;;;;;22.50;99304.00;;;;2062757;28;20218;-69
2023/08/06 02:01:34;;;;;;;2.67;2.47;;;;;22.50;99312.00;;;;2063288;28;20257;-69
2023/08/06 02:02:34;;;;;;;2.53;2.00;;;;;22.40;99314.00;;;;2046637;28;20255;-69
2023/08/06 02:03:35;;;;;;;2.00;1.80;;;;;22.40;99314.00;;;;2028223;29;20655;-69
2023/08/06 02:04:35;;;;;;;2.33;2.13;;;;;22.50;99312.00;;;;2030318;29;20225;-69
2023/08/06 02:05:35;;;;;;;2.30;1.93;;;;;22.50;99305.00;;;;2045395;28;20231;-69
2023/08/06 02:06:36;;;;;;;2.93;2.00;;;;;22.50;99309.00;;;;2055249;28;20219;-69
2023/08/06 02:07:36;;;;;;;2.73;2.17;;;;;22.50;99311.00;;;;2061796;28;20281;-69
2023/08/06 02:08:36;;;;;;;3.13;1.87;;;;;22.50;99309.00;;;;2051888;28;20227;-69
2023/08/06 02:09:37;;;;;;;4.00;2.00;;;;;22.50;99317.00;;;;2063314;28;20725;-69
2023/08/06 02:10:37;;;;;;;2.97;2.17;;;;;22.50;99310.00;;;;2063105;28;20223;-69
2023/08/06 02:11:37;;;;;;;2.20;1.90;;;;;22.50;99319.00;;;;2062325;28;20219;-69
2023/08/06 02:12:38;;;;;;;2.07;1.87;;;;;22.50;99309.00;;;;2063610;28;20309;-69
2023/08/06 02:13:38;;;;;;;2.53;1.80;;;;;22.50;99313.00;;;;2052036;28;20233;-69
2023/08/06 02:14:38;;;;;;;2.30;2.00;;;;;22.50;99308.00;;;;2063118;28;20218;-69
2023/08/06 02:15:43;;;;;;;2.53;2.27;;;;;22.50;99308.00;;;;2060819;28;20754;-69
2023/08/06 02:16:43;;;;;;;2.22;2.03;;;;;22.50;99300.00;;;;2063228;28;20357;-69
2023/08/06 02:17:43;;;;;;;2.57;2.00;;;;;22.50;99298.00;;;;2062531;28;20219;-69
2023/08/06 02:18:44;;;;;;;3.20;2.90;;;;;22.50;99292.00;;;;2046084;28;20269;-69
2023/08/06 02:19:44;;;;;;;2.67;2.17;;;;;22.50;99300.00;;;;2060462;28;20242;-69
2023/08/06 02:20:55;;;;;;;2.00;1.80;;;;;22.50;99295.00;;;;2057587;28;20223;-69
2023/08/06 02:21:55;;;;;;;2.42;2.20;;;;;22.50;99291.00;;;;2062517;28;20215;-69
2023/08/06 02:22:55;;;;;;;2.43;1.80;;;;;22.50;99298.00;;;;2061476;28;20223;-69
2023/08/06 02:23:56;;;;;;;2.77;2.10;;;;;22.50;99296.00;;;;2053526;28;20227;-69
2023/08/06 02:24:56;;;;;;;2.43;2.23;;;;;22.50;99298.00;;;;2061128;28;20226;-69
2023/08/06 02:26:00;;;;;;;2.17;1.97;;;;;22.50;99308.00;;;;2053845;28;20235;-69
2023/08/06 02:27:01;;;;;;;7.88;2.30;;;;;22.50;99294.00;;;;2053046;28;20700;-69
2023/08/06 02:28:01;;;;;;;2.40;2.20;;;;;22.50;99294.00;;;;2069718;28;20221;-69
2023/08/06 02:29:01;;;;;;;2.27;2.00;;;;;22.50;99289.00;;;;2053664;28;20213;-69
2023/08/06 02:30:03;;;;;;;2.20;2.00;;;;;22.50;99289.00;;;;2057924;28;20220;-69
2023/08/06 02:31:04;;;;;;;2.30;2.10;;;;;22.50;99267.00;;;;2054292;28;20266;-69
2023/08/06 02:32:04;;;;;;;2.37;2.17;;;;;22.50;99283.00;;;;2060818;28;20653;-69
2023/08/06 02:33:05;;;;;;;2.53;2.17;;;;;22.50;99292.00;;;;2054795;28;20874;-69
2023/08/06 02:34:05;;;;;;;2.63;2.00;;;;;22.40;99293.00;;;;2055308;28;20215;-69
2023/08/06 02:35:06;;;;;;;2.60;2.40;;;;;22.50;99283.00;;;;2069643;28;20222;-69
2023/08/06 02:36:06;;;;;;;4.03;2.33;;;;;22.40;99291.00;;;;2062301;28;20238;-69
2023/08/06 02:37:06;;;;;;;3.50;1.87;;;;;22.50;99295.00;;;;2064671;28;20222;-69
2023/08/06 02:38:07;;;;;;;4.33;2.27;;;;;22.50;99289.00;;;;2050400;28;20211;-69
2023/08/06 02:39:07;;;;;;;2.53;2.00;;;;;22.50;99286.00;;;;2061872;28;20238;-69
2023/08/06 02:40:08;;;;;;;2.50;2.30;;;;;22.50;99286.00;;;;2062642;28;20217;-69
2023/08/06 02:41:08;;;;;;;2.37;2.07;;;;;22.50;99285.00;;;;2061108;28;20207;-70
2023/08/06 02:42:08;;;;;;;2.90;2.20;;;;;22.50;99280.00;;;;2055418;28;20211;-69
2023/08/06 02:43:09;;;;;;;2.20;2.00;;;;;22.50;99284.00;;;;2052515;28;20920;-69
2023/08/06 02:44:09;;;;;;;2.73;2.13;;;;;22.40;99274.00;;;;2057741;28;20215;-69
2023/08/06 02:45:09;;;;;;;3.07;2.10;;;;;22.50;99281.00;;;;2062795;28;20210;-69
2023/08/06 02:46:10;;;;;;;2.60;2.00;;;;;22.50;99280.00;;;;2059668;28;20805;-69
2023/08/06 02:47:10;;;;;;;4.20;2.23;;;;;22.50;99273.00;;;;2061264;28;20730;-69
2023/08/06 02:48:10;;;;;;;2.00;1.83;;;;;22.50;99261.00;;;;2049994;28;20276;-69
2023/08/06 02:49:11;;;;;;;2.80;2.00;;;;;22.50;99278.00;;;;2057162;28;20215;-69
2023/08/06 02:50:11;;;;;;;2.27;2.07;;;;;22.40;99282.00;;;;2062318;28;20333;-69
2023/08/06 02:51:11;;;;;;;2.83;1.90;;;;;22.40;99277.00;;;;2057753;28;20214;-69
2023/08/06 02:52:12;;;;;;;2.27;2.00;;;;;22.40;99275.00;;;;2061253;28;20218;-69
2023/08/06 02:53:12;;;;;;;2.53;2.10;;;;;22.40;99277.00;;;;2051467;28;20219;-69
2023/08/06 02:54:12;;;;;;;2.30;2.00;;;;;22.40;99269.00;;;;2062478;28;20280;-69
2023/08/06 02:55:13;;;;;;;2.50;1.90;;;;;22.40;99270.00;;;;2069358;28;20206;-69
2023/08/06 02:56:13;;;;;;;2.70;2.50;;;;;22.40;99277.00;;;;2061850;28;20273;-69
2023/08/06 02:57:13;;;;;;;2.10;1.90;;;;;22.40;99273.00;;;;2063816;28;20243;-69
2023/08/06 02:58:17;;;;;;;2.43;2.23;;;;;22.40;99276.00;;;;2054336;28;20212;-69
2023/08/06 02:59:17;;;;;;;2.33;2.00;;;;;22.40;99270.00;;;;2070117;28;20206;-69
2023/08/06 03:00:17;;;;;;;2.57;1.90;;;;;22.40;99268.00;;;;2068914;28;20210;-69
2023/08/06 03:01:18;;;;;;;3.27;2.33;;;;;22.50;99273.00;;;;2057730;28;20683;-69
2023/08/06 03:02:18;;;;;;;2.60;2.10;;;;;22.40;99269.00;;;;2062762;28;20277;-69
2023/08/06 03:03:18;;;;;;;2.50;1.93;;;;;22.40;99270.00;;;;2047798;28;20223;-69
2023/08/06 03:04:18;;;;;;;3.40;2.30;;;;;22.40;99267.00;;;;2075572;28;20314;-69
2023/08/06 03:05:19;;;;;;;2.73;1.80;;;;;22.40;99264.00;;;;2068318;28;20218;-69
2023/08/06 03:06:19;;;;;;;2.00;1.90;;;;;22.40;99263.00;;;;2062595;28;20225;-69
2023/08/06 03:07:20;;;;;;;3.00;2.30;;;;;22.40;99253.00;;;;2060333;28;20245;-69
2023/08/06 03:08:22;;;;;;;2.00;1.70;;;;;22.40;99244.00;;;;2049585;28;20211;-69
2023/08/06 03:09:22;;;;;;;2.22;2.03;;;;;22.40;99262.00;;;;2065046;28;20687;-69
2023/08/06 03:10:23;;;;;;;2.30;2.10;;;;;22.40;99256.00;;;;2067688;28;20217;-69
2023/08/06 03:11:23;;;;;;;2.30;2.03;;;;;22.40;99249.00;;;;2063536;28;20207;-69
2023/08/06 03:12:23;;;;;;;1.90;1.80;;;;;22.40;99258.00;;;;2062188;28;20207;-69
2023/08/06 03:13:23;;;;;;;2.03;1.80;;;;;22.40;99253.00;;;;2056018;28;20228;-69
2023/08/06 03:14:24;;;;;;;3.57;2.13;;;;;22.40;99257.00;;;;2059763;28;20210;-69
2023/08/06 03:15:24;;;;;;;2.10;1.90;;;;;22.40;99246.00;;;;2062468;28;20214;-69
2023/08/06 03:16:24;;;;;;;2.23;2.03;;;;;22.50;99255.00;;;;2061431;28;20266;-69
2023/08/06 03:17:25;;;;;;;2.10;2.00;;;;;22.40;99252.00;;;;2060962;28;20628;-69
2023/08/06 03:18:28;;;;;;;2.50;1.90;;;;;22.40;99253.00;;;;2058321;28;20646;-69
2023/08/06 03:19:28;;;;;;;3.55;2.10;;;;;22.40;99250.00;;;;2061610;28;20346;-69
2023/08/06 03:20:29;;;;;;;2.63;2.20;;;;;22.40;99251.00;;;;2066099;28;20398;-69
2023/08/06 03:21:29;;;;;;;2.47;2.27;;;;;22.40;99247.00;;;;2061539;28;20227;-69
2023/08/06 03:22:29;;;;;;;2.17;1.97;;;;;22.40;99256.00;;;;2063469;28;20280;-69
2023/08/06 03:23:30;;;;;;;2.50;2.20;;;;;22.40;99243.00;;;;2053341;28;20242;-69
2023/08/06 03:24:30;;;;;;;2.20;2.00;;;;;22.40;99252.00;;;;2066658;28;20222;-69
2023/08/06 03:25:30;;;;;;;5.00;2.10;;;;;22.40;99257.00;;;;2067290;28;20249;-69
2023/08/06 03:26:31;;;;;;;1.80;1.70;;;;;22.40;99248.00;;;;2061720;28;20303;-69
2023/08/06 03:27:31;;;;;;;2.30;1.93;;;;;22.40;99245.00;;;;2063133;28;20227;-69
2023/08/06 03:28:31;;;;;;;2.43;2.07;;;;;22.40;99248.00;;;;2051711;28;20219;-69
2023/08/06 03:29:32;;;;;;;2.20;1.57;;;;;22.40;99248.00;;;;2057705;28;20226;-69
2023/08/06 03:30:32;;;;;;;4.87;2.93;;;;;22.40;99250.00;;;;2064189;28;20222;-69
2023/08/06 03:31:32;;;;;;;2.27;2.07;;;;;22.40;99247.00;;;;2061640;28;20241;-69
2023/08/06 03:32:33;;;;;;;2.73;2.43;;;;;22.40;99250.00;;;;2063986;28;20238;-69
2023/08/06 03:33:33;;;;;;;2.20;2.00;;;;;22.40;99246.00;;;;2055429;28;20207;-69
2023/08/06 03:34:33;;;;;;;2.30;2.10;;;;;22.40;99247.00;;;;2072236;28;20245;-69
2023/08/06 03:35:34;;;;;;;2.10;1.90;;;;;22.40;99258.00;;;;2066618;28;20223;-69
2023/08/06 03:36:34;;;;;;;1.93;1.80;;;;;22.40;99240.00;;;;2062601;28;20230;-69
2023/08/06 03:37:34;;;;;;;3.33;1.93;;;;;22.40;99248.00;;;;2064637;28;20250;-69
2023/08/06 03:38:34;;;;;;;2.53;1.70;;;;;22.40;99253.00;;;;2052402;28;20226;-69
2023/08/06 03:39:35;;;;;;;2.03;1.83;;;;;22.40;99246.00;;;;2067711;28;20222;-69
2023/08/06 03:40:36;;;;;;;2.23;2.03;;;;;22.40;99246.00;;;;2057793;28;20215;-69
2023/08/06 03:41:36;;;;;;;3.73;1.93;;;;;22.40;99240.00;;;;2064049;28;20242;-69
2023/08/06 03:42:36;;;;;;;2.40;2.10;;;;;22.40;99242.00;;;;2064054;28;20280;-69
2023/08/06 03:43:37;;;;;;;2.33;2.00;;;;;22.40;99244.00;;;;2058382;28;20222;-69
2023/08/06 03:44:37;;;;;;;2.13;1.90;;;;;22.40;99244.00;;;;2064104;28;20241;-69
2023/08/06 03:45:37;;;;;;;2.20;2.00;;;;;22.40;99242.00;;;;2070610;28;20214;-69
2023/08/06 03:46:38;;;;;;;3.27;1.97;;;;;22.40;99249.00;;;;2064636;28;20238;-69
2023/08/06 03:47:38;;;;;;;2.03;1.73;;;;;22.40;99242.00;;;;2062929;28;20215;-69
2023/08/06 03:48:38;;;;;;;2.33;1.90;;;;;22.40;99239.00;;;;2056893;28;20233;-69
2023/08/06 03:49:39;;;;;;;3.70;2.43;;;;;22.40;99238.00;;;;2071458;28;20214;-69
2023/08/06 03:50:39;;;;;;;2.50;1.90;;;;;22.40;99242.00;;;;2067451;28;20217;-69
2023/08/06 03:51:39;;;;;;;2.30;2.10;;;;;22.40;99241.00;;;;2064554;28;20257;-69
2023/08/06 03:52:40;;;;;;;2.30;2.10;;;;;22.40;99238.00;;;;2063955;28;20211;-69
2023/08/06 03:53:40;;;;;;;2.50;2.30;;;;;22.40;99237.00;;;;2059061;28;20249;-69
2023/08/06 03:54:42;;;;;;;2.10;1.90;;;;;22.40;99238.00;;;;2071464;28;20218;-69
2023/08/06 03:55:43;;;;;;;1.90;1.80;;;;;22.40;99238.00;;;;2067045;28;20229;-69
2023/08/06 03:56:43;;;;;;;1.87;1.77;;;;;22.40;99245.00;;;;2061485;28;20219;-69
2023/08/06 03:57:43;;;;;;;2.27;1.67;;;;;22.40;99238.00;;;;2062411;28;20231;-69
2023/08/06 03:58:44;;;;;;;1.87;1.77;;;;;22.40;99243.00;;;;2057467;28;20221;-68
2023/08/06 03:59:44;;;;;;;2.30;1.70;;;;;22.40;99239.00;;;;2071594;28;20268;-69
2023/08/06 04:00:44;;;;;;;1.83;1.63;;;;;22.40;99236.00;;;;2066546;28;20215;-69
2023/08/06 04:01:45;;;;;;;2.60;1.77;;;;;22.40;99236.00;;;;2060095;28;20270;-69
2023/08/06 04:02:45;;;;;;;1.93;1.60;;;;;22.40;99244.00;;;;2062418;28;20218;-69
2023/08/06 04:03:45;;;;;;;2.97;1.80;;;;;22.40;99238.00;;;;2058739;28;20217;-69
2023/08/06 04:04:46;;;;;;;2.10;1.90;;;;;22.40;99234.00;;;;2070901;28;20230;-69
2023/08/06 04:05:46;;;;;;;2.30;2.10;;;;;22.40;99233.00;;;;2064516;28;20237;-69
2023/08/06 04:06:46;;;;;;;2.63;1.50;;;;;22.40;99236.00;;;;2061131;28;20234;-69
2023/08/06 04:07:48;;;;;;;2.50;2.30;;;;;22.40;99235.00;;;;2064453;28;20223;-69
2023/08/06 04:08:48;;;;;;;2.00;1.90;;;;;22.40;99233.00;;;;2059239;28;20237;-69
2023/08/06 04:09:58;;;;;;;6.17;1.77;;;;;22.40;99235.00;;;;2072089;28;20226;-69
2023/08/06 04:10:58;;;;;;;3.95;1.65;;;;;22.40;99237.00;;;;2059478;28;20218;-69
2023/08/06 04:12:01;;;;;;;1.87;1.77;;;;;22.40;99235.00;;;;2062931;28;20219;-69
2023/08/06 04:13:01;;;;;;;2.35;2.00;;;;;22.40;99232.00;;;;2063227;28;20226;-69
2023/08/06 04:14:02;;;;;;;2.30;2.10;;;;;22.40;99233.00;;;;2060631;28;20226;-69
2023/08/06 04:15:03;;;;;;;2.10;1.90;;;;;22.40;99233.00;;;;2067510;28;20465;-69
2023/08/06 04:16:04;;;;;;;2.00;1.80;;;;;22.40;99234.00;;;;2063161;28;20222;-69
2023/08/06 04:17:04;;;;;;;1.63;1.53;;;;;22.40;99234.00;;;;2064362;28;20247;-69
2023/08/06 04:18:04;;;;;;;1.97;1.80;;;;;22.40;99237.00;;;;2049503;28;20286;-69
2023/08/06 04:19:05;;;;;;;2.53;2.30;;;;;22.40;99239.00;;;;2051026;28;20224;-69
2023/08/06 04:20:06;;;;;;;3.63;1.90;;;;;22.40;99224.00;;;;2063940;28;20221;-69
2023/08/06 04:21:06;;;;;;;2.35;2.10;;;;;22.40;99235.00;;;;2061739;28;20250;-69
2023/08/06 04:22:07;;;;;;;2.33;2.00;;;;;22.40;99239.00;;;;2061919;28;20294;-69
2023/08/06 04:23:07;;;;;;;2.63;1.90;;;;;22.40;99233.00;;;;2053889;28;20325;-69
2023/08/06 04:24:08;;;;;;;3.00;2.33;;;;;22.40;99236.00;;;;2061469;28;20225;-69
2023/08/06 04:25:08;;;;;;;2.73;1.77;;;;;22.40;99239.00;;;;2061678;28;20741;-69
2023/08/06 04:26:09;;;;;;;2.30;1.90;;;;;22.40;99235.00;;;;2063366;28;20261;-68
2023/08/06 04:27:10;;;;;;;2.50;2.30;;;;;22.40;99229.00;;;;2063544;28;20357;-68
2023/08/06 04:28:10;;;;;;;1.87;1.77;;;;;22.40;99233.00;;;;2048893;28;20226;-68
2023/08/06 04:29:10;;;;;;;1.90;1.80;;;;;22.40;99231.00;;;;2064242;28;20465;-68
2023/08/06 04:30:12;;;;;;;2.30;2.10;;;;;22.40;99231.00;;;;2063088;28;20222;-68
2023/08/06 04:31:12;;;;;;;2.60;2.08;;;;;22.40;99242.00;;;;2077991;28;20225;-68
2023/08/06 04:32:12;;;;;;;3.53;1.80;;;;;22.40;99231.00;;;;2058678;28;20233;-68
2023/08/06 04:33:13;;;;;;;2.97;1.77;;;;;22.40;99225.00;;;;2059721;28;20222;-68
2023/08/06 04:34:13;;;;;;;2.70;2.10;;;;;22.20;99191.00;;;;2063117;28;20276;-68
2023/08/06 04:35:13;;;;;;;2.30;2.03;;;;;22.40;99232.00;;;;2062190;28;20215;-68
2023/08/06 04:36:14;;;;;;;1.70;1.50;;;;;22.40;99224.00;;;;2057979;28;20215;-68
2023/08/06 04:37:14;;;;;;;2.30;2.10;;;;;22.40;99234.00;;;;2058555;28;20223;-68
2023/08/06 04:38:14;;;;;;;2.30;2.10;;;;;22.40;99216.00;;;;2052201;28;20290;-68
2023/08/06 04:39:15;;;;;;;2.00;1.90;;;;;22.40;99229.00;;;;2046781;28;20217;-68
2023/08/06 04:40:15;;;;;;;2.37;1.80;;;;;22.30;99193.00;;;;2056933;28;20247;-68
2023/08/06 04:41:16;;;;;;;1.70;1.60;;;;;22.40;99232.00;;;;2061151;28;20235;-68
2023/08/06 04:42:16;;;;;;;3.35;2.00;;;;;22.40;99236.00;;;;2063347;28;20705;-68
2023/08/06 04:43:17;;;;;;;2.27;2.07;;;;;22.30;99230.00;;;;2054715;28;20214;-68
2023/08/06 04:44:17;;;;;;;2.23;2.03;;;;;22.40;99226.00;;;;2057025;28;20270;-68
2023/08/06 04:45:17;;;;;;;1.90;1.73;;;;;22.40;99229.00;;;;2046430;29;20291;-68
2023/08/06 04:46:18;;;;;;;3.80;1.60;;;;;22.40;99227.00;;;;2045680;28;21767;-68
2023/08/06 04:47:18;;;;;;;2.60;2.10;;;;;22.40;99236.00;;;;2055924;28;20219;-68
2023/08/06 04:48:18;;;;;;;2.13;1.60;;;;;22.40;99230.00;;;;2052176;28;20207;-68
2023/08/06 04:49:20;;;;;;;3.57;2.00;;;;;22.40;99234.00;;;;2069421;28;20218;-68
2023/08/06 04:50:20;;;;;;;2.35;1.80;;;;;22.40;99216.00;;;;2063602;28;20211;-68
2023/08/06 04:51:21;;;;;;;3.57;2.03;;;;;22.40;99233.00;;;;2054491;28;20766;-68
2023/08/06 04:52:21;;;;;;;1.97;1.87;;;;;22.40;99234.00;;;;2063547;28;20633;-68
2023/08/06 04:53:21;;;;;;;2.03;1.87;;;;;22.40;99233.00;;;;2051154;28;20315;-68
2023/08/06 04:54:21;;;;;;;2.00;1.80;;;;;22.40;99238.00;;;;2064306;28;20218;-68
2023/08/06 04:55:22;;;;;;;2.63;2.23;;;;;22.40;99235.00;;;;2062612;28;20664;-68
2023/08/06 04:56:22;;;;;;;2.00;1.80;;;;;22.40;99237.00;;;;2056410;28;20626;-68
2023/08/06 04:57:22;;;;;;;2.00;1.67;;;;;22.40;99238.00;;;;2063315;28;20246;-68
2023/08/06 04:58:23;;;;;;;2.00;1.80;;;;;22.40;99235.00;;;;2052252;28;20203;-68
2023/08/06 04:59:23;;;;;;;2.23;2.03;;;;;22.40;99238.00;;;;2062624;28;20266;-68
2023/08/06 05:00:23;;;;;;;3.57;2.23;;;;;22.40;99238.00;;;;2062661;28;20297;-68
2023/08/06 05:01:24;;;;;;;3.33;1.80;;;;;22.40;99238.00;;;;2064206;28;20214;-68
2023/08/06 05:02:24;;;;;;;2.70;1.87;;;;;22.40;99238.00;;;;2062660;28;20215;-68
2023/08/06 05:03:24;;;;;;;2.37;2.10;;;;;22.40;99233.00;;;;2050066;28;20224;-68
2023/08/06 05:04:25;;;;;;;2.30;2.00;;;;;22.40;99191.00;;;;2071571;28;20210;-68
2023/08/06 05:05:25;;;;;;;2.77;2.20;;;;;22.40;99239.00;;;;2061104;28;20346;-68
2023/08/06 05:06:26;;;;;;;2.10;1.87;;;;;22.40;99234.00;;;;2063155;28;20215;-68